Terminal Aerodrome Forecast
Issued by NWS Charleston, WV

Home | Current Version | Previous Version | Text Only | Print | Product List | Glossary On
Versions: 1 2 3 4 5 6 7 8 9 10 11 12 13 14 15 16 17 18 19 20 21 22 23 24 25 26 27 28 29 30 31 32 33 34 35
000
FTUS41 KRLX 221300 AAA
TAFCRW
TAF AMD
KCRW 221304Z 2213/2312 30006KT P6SM OVC012
     FM221800 32007KT P6SM OVC025
     FM222200 32006KT P6SM BKN030
     FM230000 31005KT P6SM BKN035
     FM230400 33005KT P6SM BKN250=

USA.gov is the U.S. government's official web portal to all federal, state and local government web resources and services.